Time;durP1;ratioP1;P1;durP2;ratioP2;P2;SDS_P1;SDS_P2;PMS_P1;PMS_P2;Temp;Humidity;BMP_temperature;BMP_pressure;BME280_temperature;BME280_humidity;BME280_pressure;Samples;Min_cycle;Max_cycle;Signal;HPM_P1;HPM_P2
2021/08/08 00:00:54;;;;;;;20.12;6.42;;;;;;;18.72;73.16;98137.78;2210262;81;21524;-62
2021/08/08 00:03:56;;;;;;;19.73;6.22;;;;;;;18.68;73.64;98135.12;2188516;81;20957;-65
2021/08/08 00:06:57;;;;;;;17.07;5.53;;;;;;;18.62;73.42;98139.73;2210346;81;21036;-63
2021/08/08 00:09:57;;;;;;;19.82;6.28;;;;;;;18.59;74.79;98131.61;2210353;81;21012;-64
2021/08/08 00:12:58;;;;;;;18.50;5.75;;;;;;;18.53;74.14;98128.25;2210393;81;21036;-63
2021/08/08 00:15:58;;;;;;;17.27;5.42;;;;;;;18.49;74.12;98133.07;2210454;81;21013;-63
2021/08/08 00:18:59;;;;;;;19.90;6.47;;;;;;;18.50;73.89;98131.23;2210015;81;20985;-64
2021/08/08 00:21:59;;;;;;;23.42;6.85;;;;;;;18.52;74.20;98122.12;2210593;81;20976;-62
2021/08/08 00:25:00;;;;;;;19.05;6.53;;;;;;;18.50;75.10;98116.63;2209944;81;21048;-65
2021/08/08 00:28:01;;;;;;;21.57;6.62;;;;;;;18.51;74.73;98107.68;2210451;81;20977;-64
2021/08/08 00:31:01;;;;;;;19.50;6.45;;;;;;;18.48;74.68;98109.34;2210423;81;20992;-64
2021/08/08 00:34:01;;;;;;;20.15;6.20;;;;;;;18.50;74.37;98108.19;2213126;80;21536;-64
2021/08/08 00:37:04;;;;;;;18.80;5.85;;;;;;;18.52;74.69;98102.71;2190096;80;21001;-62
2021/08/08 00:40:04;;;;;;;19.32;6.03;;;;;;;18.52;74.44;98092.09;2220636;80;20990;-66
2021/08/08 00:43:05;;;;;;;19.23;6.00;;;;;;;18.55;74.50;98095.75;2220638;80;20968;-65
2021/08/08 00:46:05;;;;;;;19.02;6.55;;;;;;;18.57;74.54;98095.58;2220623;80;21056;-65
2021/08/08 00:49:06;;;;;;;19.02;6.60;;;;;;;18.59;74.44;98082.95;2220993;80;20976;-66
2021/08/08 00:52:06;;;;;;;20.00;6.00;;;;;;;18.56;74.25;98081.48;2220836;80;21339;-62
2021/08/08 00:55:07;;;;;;;16.73;5.60;;;;;;;18.53;74.47;98079.13;2220595;80;21038;-62
2021/08/08 00:58:07;;;;;;;19.98;6.15;;;;;;;18.54;74.52;98076.81;2220591;80;20999;-62
2021/08/08 01:01:07;;;;;;;18.77;5.95;;;;;;;18.57;74.63;98071.17;2220682;80;21511;-63
2021/08/08 01:04:08;;;;;;;19.00;6.70;;;;;;;18.59;75.50;98061.72;2220625;80;21510;-64
2021/08/08 01:07:09;;;;;;;19.52;5.67;;;;;;;18.58;74.77;98064.87;2220600;80;20964;-63
2021/08/08 01:10:09;;;;;;;15.55;5.37;;;;;;;18.58;74.42;98065.39;2220600;80;20972;-61
2021/08/08 01:13:10;;;;;;;22.77;5.95;;;;;;;18.58;74.65;98057.42;2220609;80;20976;-63
2021/08/08 01:16:10;;;;;;;15.63;5.37;;;;;;;18.57;74.79;98048.60;2221176;80;20953;-66
2021/08/08 01:19:11;;;;;;;16.27;5.03;;;;;;;18.58;74.53;98047.62;2220437;80;21479;-63
2021/08/08 01:22:12;;;;;;;18.30;5.40;;;;;;;18.61;74.71;98041.16;2220352;80;21330;-66
2021/08/08 01:25:12;;;;;;;15.43;5.53;;;;;;;18.63;74.54;98043.14;2220579;80;20961;-64
2021/08/08 01:28:13;;;;;;;19.95;5.67;;;;;;;18.65;74.80;98038.51;2220666;80;20964;-65
2021/08/08 01:31:13;;;;;;;17.30;5.83;;;;;;;18.65;74.53;98026.56;2220793;80;20971;-66
2021/08/08 01:34:14;;;;;;;19.40;5.30;;;;;;;18.65;74.39;98034.02;2217494;80;21000;-62
2021/08/08 01:37:14;;;;;;;24.65;6.05;;;;;;;18.70;74.30;98034.37;2210414;81;21444;-66
2021/08/08 01:40:14;;;;;;;17.67;5.67;;;;;;;18.73;74.52;98034.51;2210347;81;21032;-66
2021/08/08 01:43:15;;;;;;;16.30;5.45;;;;;;;18.72;74.46;98031.55;2210193;81;21017;-65
2021/08/08 01:46:15;;;;;;;16.05;5.60;;;;;;;18.72;74.33;98030.69;2210352;81;20985;-65
2021/08/08 01:49:16;;;;;;;19.10;5.87;;;;;;;18.68;74.39;98028.88;2210258;81;20961;-65
2021/08/08 01:52:16;;;;;;;17.73;5.17;;;;;;;18.67;74.35;98027.20;2210285;81;21090;-66
2021/08/08 01:55:17;;;;;;;17.37;5.92;;;;;;;18.68;74.30;98024.39;2210289;81;21873;-67
2021/08/08 01:58:17;;;;;;;15.78;5.33;;;;;;;18.68;74.65;98023.06;2210245;81;21527;-66
2021/08/08 02:01:18;;;;;;;18.50;5.47;;;;;;;18.68;74.29;98024.39;2210217;81;20960;-64
2021/08/08 02:04:19;;;;;;;18.10;6.05;;;;;;;18.69;74.27;98021.22;2210447;81;21061;-64
2021/08/08 02:07:19;;;;;;;16.27;5.28;;;;;;;18.67;74.44;98009.44;2210340;81;20969;-67
2021/08/08 02:10:20;;;;;;;14.63;4.85;;;;;;;18.65;74.33;98017.27;2210387;81;20965;-63
2021/08/08 02:13:20;;;;;;;17.05;5.70;;;;;;;18.63;74.50;98021.41;2210291;81;21481;-65
2021/08/08 02:16:21;;;;;;;15.30;5.10;;;;;;;18.61;74.38;98012.77;2210225;81;20973;-64
2021/08/08 02:19:21;;;;;;;15.38;4.87;;;;;;;18.62;74.32;98025.53;2210124;81;21538;-64
2021/08/08 02:22:21;;;;;;;17.48;5.30;;;;;;;18.64;74.22;98023.56;2210232;81;20992;-63
2021/08/08 02:25:22;;;;;;;19.40;5.65;;;;;;;18.63;74.49;98017.43;2209951;81;21059;-63
2021/08/08 02:28:22;;;;;;;16.45;5.17;;;;;;;18.63;74.44;98021.89;2210339;81;21012;-64
2021/08/08 02:31:23;;;;;;;15.93;5.30;;;;;;;18.63;74.64;98018.76;2210421;81;20956;-64
2021/08/08 02:34:23;;;;;;;17.00;4.90;;;;;;;18.68;74.27;98022.24;2210263;81;21053;-64
2021/08/08 02:37:24;;;;;;;16.97;5.33;;;;;;;18.70;74.43;98015.77;2210449;81;20969;-67
2021/08/08 02:40:24;;;;;;;16.32;5.25;;;;;;;18.74;74.30;98016.77;2210288;81;20981;-66
2021/08/08 02:43:24;;;;;;;15.18;4.50;;;;;;;18.75;74.04;98029.03;2210142;81;20981;-64
2021/08/08 02:46:25;;;;;;;15.78;5.08;;;;;;;18.75;74.05;98031.69;2210225;81;21579;-64
2021/08/08 02:49:28;;;;;;;15.70;4.97;;;;;;;18.77;74.02;98036.35;2209978;81;21024;-65
2021/08/08 02:52:29;;;;;;;16.15;4.60;;;;;;;18.80;73.96;98041.33;2210220;81;20995;-64
2021/08/08 02:55:29;;;;;;;15.10;4.87;;;;;;;18.79;73.84;98043.64;2210157;80;21044;-63
2021/08/08 02:58:30;;;;;;;16.25;5.65;;;;;;;18.78;73.95;98046.81;2210136;81;21016;-63
2021/08/08 03:01:31;;;;;;;16.25;4.90;;;;;;;18.80;73.89;98051.45;2210309;81;20976;-63
2021/08/08 03:04:31;;;;;;;13.68;4.65;;;;;;;18.80;73.76;98046.14;2210246;81;20957;-65
2021/08/08 03:07:32;;;;;;;25.30;4.65;;;;;;;18.79;73.89;98043.64;2210332;81;20987;-63
2021/08/08 03:10:32;;;;;;;13.68;4.47;;;;;;;18.78;73.81;98047.32;2210219;81;20976;-66
2021/08/08 03:13:35;;;;;;;11.88;4.35;;;;;;;18.78;73.80;98055.29;2209757;81;21096;-63
2021/08/08 03:16:36;;;;;;;17.50;4.83;;;;;;;18.75;73.73;98057.77;2210445;81;20957;-62
2021/08/08 03:19:36;;;;;;;14.15;4.70;;;;;;;18.73;73.73;98057.09;2210078;81;21025;-68
2021/08/08 03:22:36;;;;;;;17.17;4.60;;;;;;;18.70;73.86;98072.03;2210293;81;21001;-62
2021/08/08 03:25:37;;;;;;;13.10;4.28;;;;;;;18.70;73.72;98076.86;2210109;81;21531;-65
2021/08/08 03:28:37;;;;;;;13.88;4.08;;;;;;;18.73;73.59;98079.66;2210157;81;21037;-64
2021/08/08 03:31:38;;;;;;;11.25;3.75;;;;;;;18.77;73.53;98076.20;2210130;81;20968;-69
2021/08/08 03:34:38;;;;;;;14.63;4.12;;;;;;;18.80;73.34;98074.03;2209923;81;21321;-67
2021/08/08 03:37:39;;;;;;;12.75;4.40;;;;;;;18.86;73.20;98075.20;2210381;81;21043;-67
2021/08/08 03:40:40;;;;;;;15.10;4.08;;;;;;;18.92;73.05;98089.20;2210219;81;21079;-62
2021/08/08 03:43:40;;;;;;;13.18;4.00;;;;;;;18.93;72.90;98094.01;2210210;81;21468;-62
2021/08/08 03:46:41;;;;;;;13.62;4.15;;;;;;;18.92;72.87;98099.83;2210129;81;20965;-66
2021/08/08 03:49:41;;;;;;;11.50;3.83;;;;;;;18.96;72.79;98111.77;2210159;81;21000;-68
2021/08/08 03:52:42;;;;;;;13.00;3.50;;;;;;;19.00;72.68;98118.92;2210340;81;20996;-65
2021/08/08 03:55:42;;;;;;;13.65;3.80;;;;;;;19.04;72.69;98132.22;2210161;81;21004;-67
2021/08/08 03:58:43;;;;;;;11.53;3.70;;;;;;;19.10;72.56;98129.41;2210303;81;20964;-68
2021/08/08 04:01:44;;;;;;;12.93;3.92;;;;;;;19.15;72.47;98128.39;2210035;81;21583;-67
2021/08/08 04:04:44;;;;;;;13.22;4.10;;;;;;;19.18;72.21;98134.23;2210061;81;20980;-67
2021/08/08 04:07:45;;;;;;;14.07;4.28;;;;;;;19.23;72.03;98136.38;2210143;81;21008;-66
2021/08/08 04:10:45;;;;;;;12.73;3.98;;;;;;;19.26;71.98;98129.40;2210216;81;20948;-65
2021/08/08 04:13:45;;;;;;;13.88;3.58;;;;;;;19.31;71.85;98137.72;2210157;81;20980;-63
2021/08/08 04:16:46;;;;;;;11.60;3.77;;;;;;;19.37;71.68;98129.58;2210117;81;21570;-62
2021/08/08 04:19:46;;;;;;;11.83;3.70;;;;;;;19.48;71.50;98124.41;2210088;81;21558;-65
2021/08/08 04:22:47;;;;;;;15.45;3.70;;;;;;;19.60;71.11;98127.06;2210102;81;20988;-64
2021/08/08 04:25:48;;;;;;;14.00;4.33;;;;;;;19.73;70.94;98135.86;2209792;81;21067;-65
2021/08/08 04:28:48;;;;;;;13.05;4.00;;;;;;;19.84;70.84;98139.53;2210329;81;21016;-63
2021/08/08 04:31:49;;;;;;;12.85;3.70;;;;;;;19.92;70.55;98144.50;2210422;81;21008;-65
2021/08/08 04:34:49;;;;;;;12.25;3.92;;;;;;;19.93;70.46;98144.33;2211775;80;21128;-62
2021/08/08 04:37:50;;;;;;;12.82;4.37;;;;;;;19.96;70.33;98159.95;2220896;80;21484;-63
2021/08/08 04:40:50;;;;;;;15.25;4.53;;;;;;;19.94;70.43;98161.97;2220751;80;21013;-65
2021/08/08 04:43:51;;;;;;;15.95;4.90;;;;;;;19.90;70.50;98177.94;2220702;80;20960;-63
2021/08/08 04:46:51;;;;;;;16.70;5.55;;;;;;;19.87;70.43;98176.44;2220729;80;21000;-66
2021/08/08 04:49:52;;;;;;;11.95;4.10;;;;;;;19.88;70.65;98187.91;2220943;80;20959;-62
2021/08/08 04:52:52;;;;;;;12.43;4.28;;;;;;;19.88;70.73;98194.55;2220660;80;20979;-61
2021/08/08 04:55:53;;;;;;;16.52;4.20;;;;;;;19.90;70.78;98213.35;2220589;80;21518;-65
2021/08/08 04:58:53;;;;;;;15.75;4.28;;;;;;;19.92;71.55;98223.83;2220736;80;20968;-65
2021/08/08 05:01:54;;;;;;;14.28;4.45;;;;;;;19.93;71.65;98228.16;2220693;80;21020;-63
2021/08/08 05:04:54;;;;;;;13.83;3.95;;;;;;;19.95;71.76;98234.13;2220793;80;20956;-63
2021/08/08 05:07:54;;;;;;;13.00;3.92;;;;;;;19.99;72.32;98236.80;2220805;80;20952;-62
2021/08/08 05:10:55;;;;;;;16.00;4.83;;;;;;;20.04;72.32;98230.48;2220719;80;20980;-63
2021/08/08 05:13:55;;;;;;;15.40;4.40;;;;;;;20.10;72.62;98240.95;2220668;80;21459;-64
2021/08/08 05:16:58;;;;;;;14.18;4.20;;;;;;;20.17;72.27;98251.26;2220676;80;21451;-62
2021/08/08 05:19:58;;;;;;;;;;;;;;;20.19;72.25;98263.06;2223184;80;21020;-62
2021/08/08 05:22:59;;;;;;;13.88;3.90;;;;;;;20.21;72.22;98281.02;2220654;80;20107;-62
2021/08/08 05:26:02;;;;;;;9.10;3.20;;;;;;;20.20;72.42;98287.34;2220784;80;21638;-62
2021/08/08 05:29:02;;;;;;;17.30;3.90;;;;;;;20.18;72.61;98293.34;2190078;80;21067;-66
2021/08/08 05:32:03;;;;;;;7.62;3.45;;;;;;;20.11;72.54;98296.34;2220552;80;21490;-63
2021/08/08 05:35:03;;;;;;;8.53;3.00;;;;;;;20.02;71.72;98326.95;2220524;80;20973;-62
2021/08/08 05:38:04;;;;;;;8.18;2.87;;;;;;;19.98;71.60;98303.50;2220718;80;20933;-62
2021/08/08 05:41:04;;;;;;;11.40;2.70;;;;;;;20.00;71.94;98296.20;2220760;80;20929;-62
2021/08/08 05:44:05;;;;;;;7.40;2.70;;;;;;;20.06;71.97;98294.19;2220648;80;20937;-61
2021/08/08 05:47:05;;;;;;;13.10;2.80;;;;;;;20.16;71.76;98306.00;2220512;80;21503;-62
2021/08/08 05:50:06;;;;;;;9.95;2.50;;;;;;;20.14;71.38;98319.48;2220557;80;21508;-63
2021/08/08 05:53:06;;;;;;;8.68;2.60;;;;;;;20.03;71.64;98336.61;2220483;80;21238;-62
2021/08/08 05:56:07;;;;;;;7.33;2.65;;;;;;;19.80;71.67;98340.92;2220624;80;21051;-62
2021/08/08 05:59:07;;;;;;;9.45;3.00;;;;;;;19.62;72.39;98329.05;2220947;80;21004;-62
2021/08/08 06:02:08;;;;;;;8.80;2.90;;;;;;;19.44;72.97;98363.25;2220677;80;20972;-63
2021/08/08 06:05:08;;;;;;;12.33;3.00;;;;;;;19.36;73.73;98362.71;2220628;80;20976;-62
2021/08/08 06:08:09;;;;;;;7.42;2.87;;;;;;;19.28;73.63;98365.84;2220615;80;21491;-62
2021/08/08 06:11:09;;;;;;;13.08;2.80;;;;;;;19.24;73.76;98373.80;2220653;80;21482;-62
2021/08/08 06:14:10;;;;;;;10.43;2.62;;;;;;;19.16;74.61;98384.73;2220483;80;20984;-62
2021/08/08 06:17:10;;;;;;;5.67;2.52;;;;;;;19.09;74.44;98391.67;2220625;80;20945;-61
2021/08/08 06:20:11;;;;;;;9.55;2.95;;;;;;;19.05;75.21;98395.67;2220742;80;20937;-62
2021/08/08 06:23:11;;;;;;;10.53;3.00;;;;;;;18.95;75.75;98408.20;2220392;80;21095;-62
2021/08/08 06:26:12;;;;;;;9.30;2.92;;;;;;;18.84;77.05;98410.63;2220417;80;21069;-62
2021/08/08 06:29:12;;;;;;;9.53;3.30;;;;;;;18.72;77.48;98429.98;2220749;80;20944;-65
2021/08/08 06:32:13;;;;;;;8.13;3.00;;;;;;;18.61;78.00;98433.70;2220683;80;21024;-61
2021/08/08 06:35:13;;;;;;;12.00;3.37;;;;;;;18.49;78.63;98439.76;2220541;80;21051;-61
2021/08/08 06:38:14;;;;;;;10.72;3.72;;;;;;;18.50;78.82;98442.77;2221156;80;20971;-62
2021/08/08 06:41:14;;;;;;;11.63;3.47;;;;;;;18.50;79.14;98442.77;2220822;80;20961;-62
2021/08/08 06:44:15;;;;;;;13.30;3.85;;;;;;;18.47;78.74;98451.01;2220897;80;21463;-62
2021/08/08 06:47:15;;;;;;;9.88;3.37;;;;;;;18.42;78.90;98452.45;2220952;80;21021;-62
2021/08/08 06:50:15;;;;;;;12.88;3.55;;;;;;;18.32;79.48;98468.48;2220924;80;20988;-61
2021/08/08 06:53:16;;;;;;;9.60;3.27;;;;;;;18.29;79.71;98472.27;2220939;80;20956;-64
2021/08/08 06:56:16;;;;;;;13.43;4.12;;;;;;;18.30;79.75;98477.93;2221055;80;20948;-61
2021/08/08 06:59:17;;;;;;;11.43;3.80;;;;;;;18.37;80.16;98484.77;2220773;80;21039;-63
2021/08/08 07:02:17;;;;;;;11.75;3.60;;;;;;;18.48;80.03;98481.89;2220912;80;20996;-61
2021/08/08 07:05:18;;;;;;;9.43;3.55;;;;;;;18.52;80.61;98492.55;2220829;80;21503;-61
2021/08/08 07:08:19;;;;;;;12.85;3.55;;;;;;;18.68;80.60;98491.86;2220843;80;21007;-62
2021/08/08 07:11:19;;;;;;;12.05;3.12;;;;;;;18.82;80.11;98499.78;2221086;80;20984;-62
2021/08/08 07:14:20;;;;;;;15.70;3.95;;;;;;;18.90;79.58;98494.22;2221005;80;21032;-61
2021/08/08 07:17:21;;;;;;;10.90;3.70;;;;;;;19.12;79.37;98502.17;2220961;80;21115;-61
2021/08/08 07:20:21;;;;;;;10.75;3.42;;;;;;;19.36;79.79;98510.80;2220933;80;21459;-62
2021/08/08 07:23:23;;;;;;;13.03;3.55;;;;;;;19.63;78.17;98509.77;2220830;80;21559;-64
2021/08/08 07:26:23;;;;;;;10.88;3.25;;;;;;;19.83;76.15;98509.56;2220709;80;21027;-66
2021/08/08 07:29:23;;;;;;;8.83;3.10;;;;;;;19.77;76.06;98527.45;2221147;80;21007;-61
2021/08/08 07:32:25;;;;;;;11.70;3.47;;;;;;;19.50;75.68;98533.32;2220708;80;20968;-63
2021/08/08 07:35:26;;;;;;;9.23;3.20;;;;;;;19.48;76.55;98525.98;2219584;80;21539;-61
2021/08/08 07:38:27;;;;;;;13.83;3.10;;;;;;;19.52;75.98;98535.31;2210544;81;21000;-64
2021/08/08 07:41:27;;;;;;;9.88;3.00;;;;;;;19.70;76.67;98540.58;2210391;81;21000;-62
2021/08/08 07:44:28;;;;;;;10.32;2.83;;;;;;;19.76;74.53;98540.44;2210147;81;21013;-63
2021/08/08 07:47:28;;;;;;;8.25;2.80;;;;;;;19.73;74.52;98533.59;2210166;81;21526;-63
2021/08/08 07:50:28;;;;;;;6.87;2.70;;;;;;;19.83;75.07;98538.33;2210129;81;21471;-67
2021/08/08 07:53:29;;;;;;;8.65;3.02;;;;;;;19.93;74.65;98540.05;2210280;81;20988;-63
2021/08/08 07:56:31;;;;;;;8.00;2.60;;;;;;;20.16;74.47;98545.11;2210523;81;21028;-63
2021/08/08 07:59:31;;;;;;;5.87;2.20;;;;;;;20.54;72.87;98550.02;2210478;80;21000;-66
2021/08/08 08:02:32;;;;;;;9.88;2.60;;;;;;;20.61;70.71;98557.68;2210359;81;21511;-63
2021/08/08 08:05:32;;;;;;;9.85;2.60;;;;;;;20.65;70.70;98552.87;2210486;81;20969;-61
2021/08/08 08:08:33;;;;;;;7.87;2.30;;;;;;;20.69;69.98;98556.91;2210732;81;21077;-64
2021/08/08 08:11:34;;;;;;;8.65;2.37;;;;;;;20.60;68.64;98581.31;2210583;81;20957;-66
2021/08/08 08:14:36;;;;;;;8.80;2.10;;;;;;;20.44;69.94;98574.13;2210203;81;21051;-62
2021/08/08 08:17:38;;;;;;;8.33;2.40;;;;;;;20.39;69.66;98561.30;2210844;81;20992;-61
2021/08/08 08:20:39;;;;;;;4.15;1.90;;;;;;;20.53;70.62;98554.52;2210607;81;20989;-62
2021/08/08 08:23:40;;;;;;;6.95;2.20;;;;;;;20.43;69.83;98558.66;2210553;81;21482;-63
2021/08/08 08:26:42;;;;;;;3.75;1.90;;;;;;;20.31;69.87;98551.95;2210784;81;20949;-61
2021/08/08 08:29:43;;;;;;;4.22;2.10;;;;;;;20.43;69.57;98555.17;2210593;81;21055;-62
2021/08/08 08:32:45;;;;;;;6.58;2.17;;;;;;;20.69;68.70;98560.91;2210505;81;21487;-66
2021/08/08 08:35:46;;;;;;;6.10;2.35;;;;;;;21.01;68.09;98552.58;2211871;80;20965;-65
2021/08/08 08:38:48;;;;;;;4.20;1.92;;;;;;;21.20;68.16;98557.55;2220804;80;21532;-64
2021/08/08 08:41:49;;;;;;;4.47;2.02;;;;;;;21.36;67.74;98565.20;2220998;80;21028;-63
2021/08/08 08:44:50;;;;;;;7.25;2.30;;;;;;;21.54;65.85;98567.72;2220828;80;20980;-64
2021/08/08 08:47:52;;;;;;;6.03;2.00;;;;;;;21.51;64.47;98553.36;2220822;80;21602;-61
2021/08/08 08:50:54;;;;;;;3.27;1.70;;;;;;;21.30;63.15;98569.38;2220850;80;21048;-64
2021/08/08 08:53:56;;;;;;;4.28;1.72;;;;;;;21.08;62.52;98564.24;2220804;80;20996;-63
2021/08/08 08:56:57;;;;;;;3.80;1.70;;;;;;;21.16;65.13;98562.06;2220942;80;20991;-65
2021/08/08 08:59:59;;;;;;;6.12;2.33;;;;;;;21.14;64.59;98567.56;2220828;80;20991;-64
2021/08/08 09:03:00;;;;;;;5.37;2.40;;;;;;;21.26;65.56;98577.38;2220679;80;21519;-64
2021/08/08 09:06:01;;;;;;;5.92;2.20;;;;;;;21.66;65.96;98566.34;2220692;80;21078;-65
2021/08/08 09:09:03;;;;;;;7.58;2.60;;;;;;;21.93;62.83;98557.06;2220666;80;21071;-64
2021/08/08 09:12:04;;;;;;;6.22;2.40;;;;;;;22.00;61.21;98575.91;2220681;80;21063;-63
2021/08/08 09:15:06;;;;;;;6.78;2.58;;;;;;;21.89;61.35;98579.77;2220661;80;21059;-62
2021/08/08 09:18:07;;;;;;;6.30;2.70;;;;;;;21.76;61.19;98584.83;2220657;80;21527;-64
2021/08/08 09:21:09;;;;;;;8.55;2.50;;;;;;;21.61;61.13;98596.72;2220662;80;21382;-65
2021/08/08 09:24:10;;;;;;;6.97;2.60;;;;;;;21.71;61.72;98586.69;2220653;80;21559;-61
2021/08/08 09:27:12;;;;;;;4.15;2.30;;;;;;;21.74;60.53;98593.02;2220786;80;21032;-64
2021/08/08 09:30:14;;;;;;;5.42;2.20;;;;;;;21.66;60.15;98607.70;2220539;80;21084;-65
2021/08/08 09:33:16;;;;;;;7.97;2.02;;;;;;;21.42;60.01;98613.87;2220141;80;21123;-62
2021/08/08 09:36:17;;;;;;;6.70;2.50;;;;;;;21.35;62.25;98623.06;2218430;80;21523;-63
2021/08/08 09:39:19;;;;;;;5.35;2.50;;;;;;;21.31;61.14;98622.25;2210418;81;21088;-63
2021/08/08 09:42:23;;;;;;;6.17;2.52;;;;;;;21.39;62.52;98631.07;2210455;81;21491;-67
2021/08/08 09:45:24;;;;;;;6.80;2.45;;;;;;;21.53;62.16;98621.56;2188825;81;21469;-65
2021/08/08 09:48:25;;;;;;;6.67;2.52;;;;;;;21.77;60.09;98618.02;2210382;81;20973;-63
2021/08/08 09:51:26;;;;;;;9.63;2.87;;;;;;;21.99;61.42;98616.95;2210460;81;21488;-62
2021/08/08 09:54:28;;;;;;;10.38;3.10;;;;;;;21.98;61.08;98616.65;2210513;81;21036;-63
2021/08/08 09:57:29;;;;;;;7.78;2.87;;;;;;;22.04;60.35;98621.77;2210486;81;20993;-64
2021/08/08 10:00:31;;;;;;;11.22;3.10;;;;;;;21.99;59.99;98635.64;2210513;81;20980;-64
2021/08/08 10:03:34;;;;;;;7.35;2.98;;;;;;;22.10;60.45;98644.63;2210389;81;21032;-65
2021/08/08 10:06:36;;;;;;;8.98;3.15;;;;;;;22.73;61.17;98640.70;2210395;81;21012;-63
2021/08/08 10:09:37;;;;;;;6.97;2.77;;;;;;;23.34;60.13;98635.94;2210358;81;21048;-65
2021/08/08 10:12:38;;;;;;;7.17;2.67;;;;;;;23.40;57.99;98640.56;2210437;81;21000;-64
2021/08/08 10:15:40;;;;;;;4.60;2.33;;;;;;;23.19;59.28;98637.25;2210334;81;20997;-66
2021/08/08 10:18:42;;;;;;;5.12;2.60;;;;;;;23.34;57.47;98639.95;2210512;81;21012;-68
2021/08/08 10:21:43;;;;;;;6.25;2.60;;;;;;;23.16;59.51;98652.32;2210371;81;20969;-64
2021/08/08 10:24:45;;;;;;;5.78;2.85;;;;;;;22.90;58.38;98660.64;2210454;81;21550;-67
2021/08/08 10:27:46;;;;;;;5.80;2.52;;;;;;;22.67;59.57;98661.47;2210349;81;21060;-65
2021/08/08 10:30:49;;;;;;;5.92;2.60;;;;;;;22.46;58.37;98678.09;2209976;81;21617;-64
2021/08/08 10:33:50;;;;;;;6.53;2.90;;;;;;;22.19;59.23;98694.02;2210424;81;20965;-61
2021/08/08 10:36:51;;;;;;;7.03;3.12;;;;;;;22.13;60.37;98683.00;2210183;80;20992;-65
2021/08/08 10:39:53;;;;;;;8.23;2.85;;;;;;;22.09;59.90;98681.67;2210437;81;20972;-65
2021/08/08 10:42:55;;;;;;;;;;;;;;;22.12;59.37;98682.70;2212867;81;21021;-62
2021/08/08 10:45:56;;;;;;;7.20;2.90;;;;;;;22.22;58.58;98681.14;2210632;81;20120;-63
2021/08/08 10:48:57;;;;;;;6.40;2.77;;;;;;;22.35;58.72;98685.14;2210309;81;20969;-64
2021/08/08 10:51:59;;;;;;;6.20;2.65;;;;;;;22.38;59.76;98689.63;2210471;81;21035;-64
2021/08/08 10:55:01;;;;;;;6.95;2.77;;;;;;;22.35;59.64;98696.66;2210348;81;21012;-62
2021/08/08 10:58:02;;;;;;;;;;;;;;;22.35;58.88;98703.33;2213035;81;21571;-63
2021/08/08 11:01:04;;;;;;;9.30;3.17;;;;;;;22.49;59.39;98699.12;2210665;80;20097;-63
2021/08/08 11:04:07;;;;;;;6.35;2.70;;;;;;;23.19;59.64;98697.44;2210284;81;20996;-64
2021/08/08 11:07:09;;;;;;;7.75;2.98;;;;;;;23.26;56.20;98699.73;2210302;81;21000;-63
2021/08/08 11:10:10;;;;;;;5.72;2.12;;;;;;;23.21;56.92;98694.06;2210400;81;21503;-66
2021/08/08 11:13:12;;;;;;;8.23;2.47;;;;;;;23.11;56.21;98694.81;2210256;81;20996;-62
2021/08/08 11:16:13;;;;;;;5.17;2.52;;;;;;;23.20;57.07;98688.89;2210337;81;20969;-62
2021/08/08 11:19:15;;;;;;;7.67;2.37;;;;;;;23.42;56.68;98684.53;2210460;81;20975;-62
2021/08/08 11:22:17;;;;;;;5.00;2.25;;;;;;;23.64;56.43;98697.06;2210371;81;21051;-65
2021/08/08 11:25:20;;;;;;;4.40;2.25;;;;;;;23.73;54.62;98695.14;2210313;81;21082;-63
2021/08/08 11:28:22;;;;;;;6.15;2.50;;;;;;;23.48;56.69;98703.39;2210069;81;21472;-67
2021/08/08 11:31:24;;;;;;;6.28;2.30;;;;;;;23.77;57.49;98696.97;2210082;81;20980;-61
2021/08/08 11:34:25;;;;;;;6.08;2.90;;;;;;;24.11;55.24;98693.80;2210270;81;21056;-62
2021/08/08 11:37:27;;;;;;;5.17;2.40;;;;;;;24.63;55.35;98687.20;2210386;81;21032;-61
2021/08/08 11:40:28;;;;;;;6.55;2.08;;;;;;;24.80;51.05;98670.39;2210298;81;21015;-62
2021/08/08 11:43:30;;;;;;;;;;;;;;;24.74;50.06;98667.95;2212995;81;20976;-64
2021/08/08 11:46:32;;;;;;;4.62;2.10;;;;;;;24.76;50.49;98673.94;2210333;80;20108;-65
2021/08/08 11:49:34;;;;;;;5.90;2.25;;;;;;;24.70;51.66;98683.57;2210526;81;20968;-63
2021/08/08 11:52:36;;;;;;;7.87;2.50;;;;;;;24.81;52.04;98678.73;2210067;81;21508;-62
2021/08/08 11:55:38;;;;;;;4.83;2.22;;;;;;;25.15;51.76;98675.91;2210287;81;21059;-62
2021/08/08 11:58:39;;;;;;;;;;;;;;;25.54;53.47;98679.99;2212823;81;21596;-62
2021/08/08 12:01:40;;;;;;;5.95;2.20;;;;;;;26.11;50.14;98691.60;2210314;80;20107;-61
2021/08/08 12:08:41;;;;;;;4.60;2.30;;;;;;;27.01;50.14;98694.80;2295190;77;22195;-59
2021/08/08 12:11:42;;;;;;;5.23;2.23;;;;;;;27.19;46.10;98698.27;2287743;77;21545;-59
2021/08/08 12:14:42;;;;;;;8.50;2.67;;;;;;;26.62;47.82;98715.95;2295886;77;21541;-59
2021/08/08 12:17:43;;;;;;;6.57;2.37;;;;;;;25.86;48.35;98720.23;2289366;77;21016;-59
2021/08/08 12:20:43;;;;;;;6.53;2.40;;;;;;;25.40;50.23;98728.21;2296581;77;21020;-60
2021/08/08 12:23:44;;;;;;;7.80;2.70;;;;;;;25.15;48.94;98730.91;2293972;77;20957;-59
2021/08/08 12:26:44;;;;;;;5.43;2.40;;;;;;;24.68;50.78;98728.52;2298000;77;21015;-59
2021/08/08 12:29:44;;;;;;;6.80;2.60;;;;;;;24.36;51.25;98731.86;2293651;77;21015;-60
2021/08/08 12:32:45;;;;;;;6.23;2.50;;;;;;;24.85;51.01;98734.48;2298668;77;20945;-60
2021/08/08 12:35:46;;;;;;;4.57;2.60;;;;;;;25.07;49.98;98725.16;2292808;77;21048;-60
2021/08/08 12:38:47;;;;;;;5.93;2.50;;;;;;;24.62;50.85;98735.95;2296781;77;21482;-60
2021/08/08 12:41:47;;;;;;;9.03;2.65;;;;;;;24.74;49.66;98732.31;2296565;77;21558;-59
2021/08/08 12:44:48;;;;;;;5.07;2.60;;;;;;;25.45;50.84;98725.47;2296570;77;20973;-59
2021/08/08 12:47:48;;;;;;;5.53;2.70;;;;;;;25.88;51.29;98721.39;2286344;77;20984;-60
2021/08/08 12:50:49;;;;;;;6.37;2.53;;;;;;;26.11;48.38;98723.33;2291796;77;20980;-63
2021/08/08 12:53:49;;;;;;;5.73;2.70;;;;;;;26.09;48.79;98721.36;2297211;77;20914;-59
2021/08/08 12:56:49;;;;;;;6.10;2.40;;;;;;;26.55;49.49;98735.25;2296679;77;20945;-59
2021/08/08 12:59:50;;;;;;;4.60;2.43;;;;;;;26.45;47.93;98733.77;2296891;77;20953;-59
2021/08/08 13:02:51;;;;;;;9.58;2.33;;;;;;;25.83;48.35;98738.59;2282702;77;21560;-60
2021/08/08 13:05:51;;;;;;;10.07;3.37;;;;;;;25.80;47.49;98733.08;2297592;77;21062;-60
2021/08/08 13:08:52;;;;;;;7.00;2.73;;;;;;;25.51;47.87;98738.93;2290048;77;21014;-60
2021/08/08 13:11:52;;;;;;;7.40;3.13;;;;;;;25.45;49.50;98737.55;2294050;77;21012;-59
2021/08/08 13:14:53;;;;;;;7.30;2.50;;;;;;;26.06;48.54;98736.53;2295052;77;20969;-59
2021/08/08 13:17:53;;;;;;;5.23;2.60;;;;;;;26.31;48.23;98744.14;2296638;77;20960;-60
2021/08/08 13:20:54;;;;;;;6.83;2.67;;;;;;;26.40;46.38;98753.69;2296116;78;20993;-60
2021/08/08 13:23:54;;;;;;;5.53;2.13;;;;;;;25.80;46.99;98753.23;2292429;77;21471;-60
2021/08/08 13:26:55;;;;;;;5.03;2.07;;;;;;;25.86;45.96;98747.10;2295775;77;21455;-63
2021/08/08 13:29:56;;;;;;;9.73;2.50;;;;;;;26.15;46.45;98748.45;2295724;77;21013;-60
2021/08/08 13:32:56;;;;;;;4.50;2.30;;;;;;;26.33;46.28;98745.28;2293386;77;20968;-59
2021/08/08 13:35:57;;;;;;;4.93;2.33;;;;;;;26.72;46.97;98748.73;2281024;77;20980;-60
2021/08/08 13:38:57;;;;;;;8.10;2.17;;;;;;;27.01;46.73;98744.09;2291093;77;20968;-60
2021/08/08 13:41:58;;;;;;;5.40;2.17;;;;;;;27.27;46.17;98748.70;2293900;77;21529;-60
2021/08/08 13:44:58;;;;;;;5.70;1.83;;;;;;;27.49;45.19;98748.57;2292398;77;20988;-60
2021/08/08 13:47:59;;;;;;;2.90;1.33;;;;;;;27.69;43.17;98756.67;2292360;77;20960;-60
2021/08/08 13:51:00;;;;;;;5.23;2.00;;;;;;;26.90;44.09;98761.63;2292325;77;20967;-59
2021/08/08 13:54:00;;;;;;;5.83;2.52;;;;;;;26.04;46.44;98757.91;2289328;77;21011;-59
2021/08/08 13:57:01;;;;;;;6.50;1.77;;;;;;;25.76;47.21;98750.64;2288542;77;21517;-60
2021/08/08 14:00:01;;;;;;;3.57;2.10;;;;;;;25.67;46.58;98754.47;2296012;77;21506;-60
2021/08/08 14:03:02;;;;;;;4.43;2.10;;;;;;;26.30;47.46;98764.50;2285784;77;20976;-60
2021/08/08 14:06:02;;;;;;;4.47;2.07;;;;;;;26.11;46.45;98744.83;2294930;77;21056;-60
2021/08/08 14:09:03;;;;;;;3.87;2.10;;;;;;;26.13;46.70;98750.53;2289352;77;20956;-65
2021/08/08 14:12:03;;;;;;;4.90;2.17;;;;;;;26.35;46.35;98752.63;2259742;78;20955;-64